首页
METAR-TAF:

METAR-TAF

机场 :

奥斯陆, 挪威

奥斯陆加勒穆恩机场

纬度: 60-12N, 经度: 011-05E, 海拔: 208米

当前天气观测

该预报发布于27分钟前的03:20 UTC
静风
温度 -6°C
湿度 86%
气压 1014 hPa
能见度10公里或以上
阴天层高于1900英尺
小雪

METAR: ENGM 230320Z 00000KT 9999 -SN OVC019 M06/M08 Q1014

时间: 04:47 (03:47 UTC)

预报

预报有效从23日的 00点(UTC)到 23日的 24点(UTC)
风速5节,风向多变
能见度10公里或以上
少量云层高于800英尺
多云层高于2000英尺
短暂存在
从 23日的 00点(UTC)到 23日的 05点(UTC)
阴天层高于800英尺
成为
从 23日的 04点(UTC)到 23日的 06点(UTC)
能見度: 4000
阴天层高于800英尺
小雪
短暂存在
从 23日的 05点(UTC)到 23日的 24点(UTC)
能見度: 1200
层高于200英尺
成为
从 23日的 08点(UTC)到 23日的 10点(UTC)
风速10节,风向南转南东

TAF: ENGM 2300/2324 VRB05KT 9999 FEW008 BKN020 TEMPO 2300/2305 OVC008 BECMG 2304/2306 4000 -SN OVC008 TEMPO 2305/2324 1200 SN VV002 BECMG 2308/2310 16010KT

超过4000个机场的气象观测和天气预报(METAR&TAF报告)。

可查询的气象台以黄色和红色小点在地图上表示。

将鼠标移到小点上方,可查看气象台名称。

然后点击查看天气观测和预报。

如需切换地图:点击带黑十字的绿色按钮放大地图;点击带横线的绿色按钮缩小地图;或者点击绿色箭头查看邻近地区的地图。


METAR-TAF: